sensor_id;sensor_type;location;lat;lon;timestamp;pressure;altitude;pressure_sealevel;temperature;humidity
67803;BME280;54601;51.378;-1.342;2022-09-14T00:00:19;99532.95;;;21.94;40.42
67803;BME280;54601;51.378;-1.342;2022-09-14T00:02:44;99530.85;;;22.39;40.08
67803;BME280;54601;51.378;-1.342;2022-09-14T00:05:10;99527.04;;;21.96;40.35
67803;BME280;54601;51.378;-1.342;2022-09-14T00:07:36;99523.17;;;22.03;40.24
67803;BME280;54601;51.378;-1.342;2022-09-14T00:10:02;99520.87;;;22.20;40.33
67803;BME280;54601;51.378;-1.342;2022-09-14T00:12:28;99521.95;;;22.12;40.43
67803;BME280;54601;51.378;-1.342;2022-09-14T00:14:54;99519.46;;;22.49;40.27
67803;BME280;54601;51.378;-1.342;2022-09-14T00:17:20;99518.99;;;22.35;40.09
67803;BME280;54601;51.378;-1.342;2022-09-14T00:19:45;99516.06;;;22.25;40.20
67803;BME280;54601;51.378;-1.342;2022-09-14T00:22:11;99512.68;;;22.25;40.20
67803;BME280;54601;51.378;-1.342;2022-09-14T00:24:37;99509.54;;;22.00;40.24
67803;BME280;54601;51.378;-1.342;2022-09-14T00:27:03;99506.72;;;22.02;40.20
67803;BME280;54601;51.378;-1.342;2022-09-14T00:29:29;99506.03;;;22.00;40.23
67803;BME280;54601;51.378;-1.342;2022-09-14T00:31:55;99505.19;;;22.44;40.30
67803;BME280;54601;51.378;-1.342;2022-09-14T00:34:21;99501.51;;;22.44;40.33
67803;BME280;54601;51.378;-1.342;2022-09-14T00:36:48;99499.90;;;22.06;40.14
67803;BME280;54601;51.378;-1.342;2022-09-14T00:39:13;99496.21;;;21.93;40.33
67803;BME280;54601;51.378;-1.342;2022-09-14T00:41:41;99497.66;;;22.27;40.18
67803;BME280;54601;51.378;-1.342;2022-09-14T00:44:05;99496.33;;;21.85;40.47
67803;BME280;54601;51.378;-1.342;2022-09-14T00:46:34;99493.06;;;22.03;40.51
67803;BME280;54601;51.378;-1.342;2022-09-14T00:48:58;99484.76;;;22.21;40.23
67803;BME280;54601;51.378;-1.342;2022-09-14T00:51:22;99480.18;;;21.94;40.32
67803;BME280;54601;51.378;-1.342;2022-09-14T00:53:47;99477.77;;;21.90;40.36
67803;BME280;54601;51.378;-1.342;2022-09-14T00:56:14;99473.79;;;21.75;40.60
67803;BME280;54601;51.378;-1.342;2022-09-14T00:58:39;99471.08;;;21.82;40.49
67803;BME280;54601;51.378;-1.342;2022-09-14T01:01:05;99470.83;;;21.86;40.43
67803;BME280;54601;51.378;-1.342;2022-09-14T01:03:31;99470.13;;;22.28;40.52
67803;BME280;54601;51.378;-1.342;2022-09-14T01:06:03;99468.72;;;22.30;40.49
67803;BME280;54601;51.378;-1.342;2022-09-14T01:10:59;99467.16;;;22.11;40.32
67803;BME280;54601;51.378;-1.342;2022-09-14T01:13:25;99464.46;;;22.11;40.33
67803;BME280;54601;51.378;-1.342;2022-09-14T01:15:47;99464.77;;;22.04;40.48
67803;BME280;54601;51.378;-1.342;2022-09-14T01:18:11;99462.12;;;21.87;40.72
67803;BME280;54601;51.378;-1.342;2022-09-14T01:20:34;99463.51;;;22.01;40.50
67803;BME280;54601;51.378;-1.342;2022-09-14T01:23:03;99459.62;;;22.04;40.46
67803;BME280;54601;51.378;-1.342;2022-09-14T01:27:50;99457.29;;;22.14;40.27
67803;BME280;54601;51.378;-1.342;2022-09-14T01:30:19;99459.02;;;21.96;40.18
67803;BME280;54601;51.378;-1.342;2022-09-14T01:32:46;99457.45;;;22.03;40.43
67803;BME280;54601;51.378;-1.342;2022-09-14T01:35:12;99455.84;;;22.42;40.25
67803;BME280;54601;51.378;-1.342;2022-09-14T01:37:37;99450.91;;;22.02;40.45
67803;BME280;54601;51.378;-1.342;2022-09-14T01:40:04;99445.86;;;21.87;40.33
67803;BME280;54601;51.378;-1.342;2022-09-14T01:42:25;99441.50;;;21.68;40.63
67803;BME280;54601;51.378;-1.342;2022-09-14T01:44:53;99442.56;;;22.22;40.14
67803;BME280;54601;51.378;-1.342;2022-09-14T01:47:20;99440.38;;;21.82;40.41
67803;BME280;54601;51.378;-1.342;2022-09-14T01:49:47;99437.68;;;21.95;40.52
67803;BME280;54601;51.378;-1.342;2022-09-14T01:52:13;99432.81;;;21.90;40.29
67803;BME280;54601;51.378;-1.342;2022-09-14T01:54:38;99431.55;;;21.74;40.50
67803;BME280;54601;51.378;-1.342;2022-09-14T01:57:03;99426.94;;;21.73;40.52
67803;BME280;54601;51.378;-1.342;2022-09-14T01:59:29;99430.01;;;21.66;40.63
67803;BME280;54601;51.378;-1.342;2022-09-14T02:01:55;99430.04;;;21.99;40.49
67803;BME280;54601;51.378;-1.342;2022-09-14T02:04:24;99429.76;;;21.86;40.64
67803;BME280;54601;51.378;-1.342;2022-09-14T02:06:46;99428.24;;;21.84;40.68
67803;BME280;54601;51.378;-1.342;2022-09-14T02:09:11;99429.43;;;22.30;40.38
67803;BME280;54601;51.378;-1.342;2022-09-14T02:11:35;99429.55;;;22.03;40.37
67803;BME280;54601;51.378;-1.342;2022-09-14T02:14:01;99432.15;;;22.23;40.50
67803;BME280;54601;51.378;-1.342;2022-09-14T02:16:27;99429.99;;;22.10;40.25
67803;BME280;54601;51.378;-1.342;2022-09-14T02:18:53;99424.27;;;21.82;40.33
67803;BME280;54601;51.378;-1.342;2022-09-14T02:21:22;99420.62;;;21.82;40.31
67803;BME280;54601;51.378;-1.342;2022-09-14T02:23:45;99415.56;;;21.82;40.31
67803;BME280;54601;51.378;-1.342;2022-09-14T02:26:11;99415.35;;;22.35;40.25
67803;BME280;54601;51.378;-1.342;2022-09-14T02:28:37;99413.45;;;22.00;40.37
67803;BME280;54601;51.378;-1.342;2022-09-14T02:31:10;99412.81;;;22.01;40.36
67803;BME280;54601;51.378;-1.342;2022-09-14T02:33:34;99412.29;;;22.04;40.31
67803;BME280;54601;51.378;-1.342;2022-09-14T02:35:56;99412.16;;;22.01;40.33
67803;BME280;54601;51.378;-1.342;2022-09-14T02:38:26;99411.24;;;21.86;40.22
67803;BME280;54601;51.378;-1.342;2022-09-14T02:40:52;99413.51;;;21.76;40.38
67803;BME280;54601;51.378;-1.342;2022-09-14T02:43:22;99413.06;;;22.03;40.29
67803;BME280;54601;51.378;-1.342;2022-09-14T02:45:43;99415.28;;;22.02;40.32
67803;BME280;54601;51.378;-1.342;2022-09-14T02:48:10;99414.15;;;22.01;40.33
67803;BME280;54601;51.378;-1.342;2022-09-14T02:50:35;99410.88;;;21.99;40.34
67803;BME280;54601;51.378;-1.342;2022-09-14T02:53:00;99411.72;;;21.83;40.26
67803;BME280;54601;51.378;-1.342;2022-09-14T02:55:23;99409.87;;;21.76;40.35
67803;BME280;54601;51.378;-1.342;2022-09-14T03:00:13;99408.21;;;21.96;40.37
67803;BME280;54601;51.378;-1.342;2022-09-14T03:02:38;99405.25;;;22.16;40.46
67803;BME280;54601;51.378;-1.342;2022-09-14T03:05:05;99402.67;;;21.85;40.50
67803;BME280;54601;51.378;-1.342;2022-09-14T03:07:30;99398.17;;;21.89;40.46
67803;BME280;54601;51.378;-1.342;2022-09-14T03:09:56;99398.78;;;22.13;40.50
67803;BME280;54601;51.378;-1.342;2022-09-14T03:12:22;99401.91;;;21.97;40.33
67803;BME280;54601;51.378;-1.342;2022-09-14T03:14:48;99399.26;;;21.92;40.40
67803;BME280;54601;51.378;-1.342;2022-09-14T03:17:14;99402.78;;;21.97;40.33
67803;BME280;54601;51.378;-1.342;2022-09-14T03:19:39;99401.98;;;21.81;40.18
67803;BME280;54601;51.378;-1.342;2022-09-14T03:22:05;99397.45;;;22.05;40.56
67803;BME280;54601;51.378;-1.342;2022-09-14T03:24:31;99391.94;;;22.06;40.55
67803;BME280;54601;51.378;-1.342;2022-09-14T03:26:57;99392.35;;;22.10;40.47
67803;BME280;54601;51.378;-1.342;2022-09-14T03:29:23;99394.97;;;22.01;40.22
67803;BME280;54601;51.378;-1.342;2022-09-14T03:31:49;99396.49;;;21.69;40.34
67803;BME280;54601;51.378;-1.342;2022-09-14T03:34:15;99394.74;;;21.95;40.27
67803;BME280;54601;51.378;-1.342;2022-09-14T03:36:41;99396.51;;;21.97;40.19
67803;BME280;54601;51.378;-1.342;2022-09-14T03:39:08;99395.18;;;21.88;40.36
67803;BME280;54601;51.378;-1.342;2022-09-14T03:41:32;99394.74;;;21.75;40.55
67803;BME280;54601;51.378;-1.342;2022-09-14T03:43:58;99394.28;;;22.22;40.24
67803;BME280;54601;51.378;-1.342;2022-09-14T03:46:25;99395.28;;;22.26;40.17
67803;BME280;54601;51.378;-1.342;2022-09-14T03:48:50;99392.51;;;22.20;40.23
67803;BME280;54601;51.378;-1.342;2022-09-14T03:51:16;99389.92;;;21.87;40.32
67803;BME280;54601;51.378;-1.342;2022-09-14T03:53:43;99389.01;;;21.90;40.29
67803;BME280;54601;51.378;-1.342;2022-09-14T03:56:09;99389.76;;;21.94;40.22
67803;BME280;54601;51.378;-1.342;2022-09-14T03:58:34;99388.86;;;21.70;40.22
67803;BME280;54601;51.378;-1.342;2022-09-14T04:01:03;99389.85;;;21.70;40.22
67803;BME280;54601;51.378;-1.342;2022-09-14T04:03:25;99389.99;;;21.63;40.31
67803;BME280;54601;51.378;-1.342;2022-09-14T04:05:54;99392.41;;;21.95;40.16
67803;BME280;54601;51.378;-1.342;2022-09-14T04:08:17;99393.42;;;21.89;40.22
67803;BME280;54601;51.378;-1.342;2022-09-14T04:10:43;99392.70;;;22.15;40.25
67803;BME280;54601;51.378;-1.342;2022-09-14T04:13:09;99392.42;;;21.84;40.29
67803;BME280;54601;51.378;-1.342;2022-09-14T04:15:35;99392.80;;;21.90;40.19
67803;BME280;54601;51.378;-1.342;2022-09-14T04:18:01;99389.01;;;22.16;40.18
67803;BME280;54601;51.378;-1.342;2022-09-14T04:20:26;99386.54;;;21.79;40.33
67803;BME280;54601;51.378;-1.342;2022-09-14T04:22:52;99386.99;;;21.80;40.31
67803;BME280;54601;51.378;-1.342;2022-09-14T04:25:18;99387.04;;;22.08;40.27
67803;BME280;54601;51.378;-1.342;2022-09-14T04:27:44;99392.20;;;22.15;40.16
67803;BME280;54601;51.378;-1.342;2022-09-14T04:30:11;99391.38;;;21.91;40.12
67803;BME280;54601;51.378;-1.342;2022-09-14T04:32:36;99389.34;;;21.70;40.40
67803;BME280;54601;51.378;-1.342;2022-09-14T04:35:02;99385.81;;;21.55;40.31
67803;BME280;54601;51.378;-1.342;2022-09-14T04:37:30;99384.97;;;21.84;40.16
67803;BME280;54601;51.378;-1.342;2022-09-14T04:39:54;99383.18;;;21.82;40.60
67803;BME280;54601;51.378;-1.342;2022-09-14T04:42:19;99388.47;;;22.14;40.13
67803;BME280;54601;51.378;-1.342;2022-09-14T04:44:45;99387.92;;;21.83;40.18
67803;BME280;54601;51.378;-1.342;2022-09-14T04:47:11;99387.22;;;21.89;40.09
67803;BME280;54601;51.378;-1.342;2022-09-14T04:49:37;99380.76;;;22.03;40.25
67803;BME280;54601;51.378;-1.342;2022-09-14T04:52:03;99379.08;;;22.04;40.21
67803;BME280;54601;51.378;-1.342;2022-09-14T04:54:29;99380.42;;;21.78;40.22
67803;BME280;54601;51.378;-1.342;2022-09-14T04:56:55;99382.29;;;21.88;40.06
67803;BME280;54601;51.378;-1.342;2022-09-14T04:59:21;99380.70;;;22.09;40.11
67803;BME280;54601;51.378;-1.342;2022-09-14T05:01:47;99383.34;;;21.82;40.11
67803;BME280;54601;51.378;-1.342;2022-09-14T05:04:13;99379.59;;;21.73;40.23
67803;BME280;54601;51.378;-1.342;2022-09-14T05:06:40;99379.73;;;22.11;40.07
67803;BME280;54601;51.378;-1.342;2022-09-14T05:09:09;99378.82;;;21.70;40.25
67803;BME280;54601;51.378;-1.342;2022-09-14T05:11:33;99381.98;;;21.84;40.07
67803;BME280;54601;51.378;-1.342;2022-09-14T05:13:57;99379.74;;;21.75;40.16
67803;BME280;54601;51.378;-1.342;2022-09-14T05:16:23;99379.81;;;21.93;40.28
67803;BME280;54601;51.378;-1.342;2022-09-14T05:18:49;99380.33;;;22.01;40.16
67803;BME280;54601;51.378;-1.342;2022-09-14T05:21:16;99374.82;;;21.70;40.21
67803;BME280;54601;51.378;-1.342;2022-09-14T05:23:40;99374.84;;;21.64;40.34
67803;BME280;54601;51.378;-1.342;2022-09-14T05:26:06;99372.38;;;21.41;40.32
67803;BME280;54601;51.378;-1.342;2022-09-14T05:28:32;99372.15;;;21.93;40.27
67803;BME280;54601;51.378;-1.342;2022-09-14T05:30:57;99370.81;;;21.93;40.27
67803;BME280;54601;51.378;-1.342;2022-09-14T05:33:23;99374.99;;;21.58;40.41
67803;BME280;54601;51.378;-1.342;2022-09-14T05:35:50;99374.83;;;21.98;40.21
67803;BME280;54601;51.378;-1.342;2022-09-14T05:38:15;99374.53;;;21.90;40.34
67803;BME280;54601;51.378;-1.342;2022-09-14T05:40:41;99373.66;;;22.06;40.12
67803;BME280;54601;51.378;-1.342;2022-09-14T05:43:07;99371.51;;;21.65;40.37
67803;BME280;54601;51.378;-1.342;2022-09-14T05:45:33;99369.67;;;21.88;40.41
67803;BME280;54601;51.378;-1.342;2022-09-14T05:47:59;99375.77;;;21.72;40.25
67803;BME280;54601;51.378;-1.342;2022-09-14T05:50:24;99377.75;;;21.63;40.38
67803;BME280;54601;51.378;-1.342;2022-09-14T05:52:50;99378.03;;;21.98;40.24
67803;BME280;54601;51.378;-1.342;2022-09-14T05:55:16;99376.91;;;21.62;40.39
67803;BME280;54601;51.378;-1.342;2022-09-14T05:57:42;99380.72;;;21.98;40.22
67803;BME280;54601;51.378;-1.342;2022-09-14T06:00:09;99375.29;;;21.60;40.41
67803;BME280;54601;51.378;-1.342;2022-09-14T06:02:34;99373.75;;;21.92;40.36
67803;BME280;54601;51.378;-1.342;2022-09-14T06:05:00;99371.61;;;21.84;40.45
67803;BME280;54601;51.378;-1.342;2022-09-14T06:07:26;99371.20;;;21.86;40.41
67803;BME280;54601;51.378;-1.342;2022-09-14T06:09:52;99372.75;;;21.47;40.61
67803;BME280;54601;51.378;-1.342;2022-09-14T06:12:18;99374.43;;;21.61;40.36
67803;BME280;54601;51.378;-1.342;2022-09-14T06:14:43;99373.87;;;21.79;40.48
67803;BME280;54601;51.378;-1.342;2022-09-14T06:17:09;99372.47;;;21.82;40.45
67803;BME280;54601;51.378;-1.342;2022-09-14T06:19:35;99374.60;;;21.89;40.33
67803;BME280;54601;51.378;-1.342;2022-09-14T06:22:01;99375.21;;;21.91;40.31
67803;BME280;54601;51.378;-1.342;2022-09-14T06:24:27;99377.10;;;21.86;40.37
67803;BME280;54601;51.378;-1.342;2022-09-14T06:26:53;99375.73;;;21.59;40.37
67803;BME280;54601;51.378;-1.342;2022-09-14T06:29:19;99378.22;;;21.69;40.20
67803;BME280;54601;51.378;-1.342;2022-09-14T06:31:45;99383.03;;;21.73;40.13
67803;BME280;54601;51.378;-1.342;2022-09-14T06:34:11;99384.62;;;21.56;40.39
67803;BME280;54601;51.378;-1.342;2022-09-14T06:36:36;99387.38;;;21.52;40.47
67803;BME280;54601;51.378;-1.342;2022-09-14T06:39:03;99391.59;;;21.60;40.36
67803;BME280;54601;51.378;-1.342;2022-09-14T06:41:28;99392.89;;;21.62;40.36
67803;BME280;54601;51.378;-1.342;2022-09-14T06:43:55;99398.10;;;21.70;40.23
67803;BME280;54601;51.378;-1.342;2022-09-14T06:46:22;99402.74;;;21.68;40.26
67803;BME280;54601;51.378;-1.342;2022-09-14T06:48:48;99406.38;;;21.95;40.25
67803;BME280;54601;51.378;-1.342;2022-09-14T06:51:15;99407.09;;;21.56;40.45
67803;BME280;54601;51.378;-1.342;2022-09-14T06:53:38;99405.07;;;21.60;40.38
67803;BME280;54601;51.378;-1.342;2022-09-14T06:56:04;99400.44;;;21.44;40.25
67803;BME280;54601;51.378;-1.342;2022-09-14T06:58:31;99398.34;;;21.58;40.40
67803;BME280;54601;51.378;-1.342;2022-09-14T07:01:00;99395.85;;;21.86;40.36
67803;BME280;54601;51.378;-1.342;2022-09-14T07:03:22;99394.71;;;22.05;40.04
67803;BME280;54601;51.378;-1.342;2022-09-14T07:05:47;99396.45;;;22.25;39.75
67803;BME280;54601;51.378;-1.342;2022-09-14T07:08:13;99389.73;;;22.11;39.60
67803;BME280;54601;51.378;-1.342;2022-09-14T07:10:39;99387.91;;;22.46;39.44
67803;BME280;54601;51.378;-1.342;2022-09-14T07:13:05;99388.21;;;22.00;39.77
67803;BME280;54601;51.378;-1.342;2022-09-14T07:15:31;99386.29;;;22.36;39.65
67803;BME280;54601;51.378;-1.342;2022-09-14T07:17:57;99385.74;;;22.06;39.61
67803;BME280;54601;51.378;-1.342;2022-09-14T07:20:22;99389.62;;;22.05;39.75
67803;BME280;54601;51.378;-1.342;2022-09-14T07:22:48;99395.13;;;22.01;39.87
67803;BME280;54601;51.378;-1.342;2022-09-14T07:25:14;99395.93;;;22.47;39.63
67803;BME280;54601;51.378;-1.342;2022-09-14T07:27:40;99402.38;;;22.30;39.82
67803;BME280;54601;51.378;-1.342;2022-09-14T07:30:08;99401.28;;;22.30;39.84
67803;BME280;54601;51.378;-1.342;2022-09-14T07:32:32;99403.51;;;22.13;39.67
67803;BME280;54601;51.378;-1.342;2022-09-14T07:34:58;99403.38;;;22.47;39.56
67803;BME280;54601;51.378;-1.342;2022-09-14T07:37:24;99404.85;;;22.07;39.79
67803;BME280;54601;51.378;-1.342;2022-09-14T07:39:49;99405.71;;;22.36;39.75
67803;BME280;54601;51.378;-1.342;2022-09-14T07:42:15;99404.78;;;22.15;39.70
67803;BME280;54601;51.378;-1.342;2022-09-14T07:44:41;99403.64;;;22.15;39.68
67803;BME280;54601;51.378;-1.342;2022-09-14T07:47:07;99407.53;;;22.41;39.65
67803;BME280;54601;51.378;-1.342;2022-09-14T07:49:33;99409.67;;;22.43;39.59
67803;BME280;54601;51.378;-1.342;2022-09-14T07:51:59;99412.06;;;21.95;39.62
67803;BME280;54601;51.378;-1.342;2022-09-14T07:54:25;99415.57;;;22.15;39.64
67803;BME280;54601;51.378;-1.342;2022-09-14T07:56:51;99414.27;;;22.20;39.56
67803;BME280;54601;51.378;-1.342;2022-09-14T07:59:17;99414.88;;;20.65;39.45
67803;BME280;54601;51.378;-1.342;2022-09-14T08:01:43;99415.16;;;22.87;38.58
67803;BME280;54601;51.378;-1.342;2022-09-14T08:04:08;99416.62;;;22.66;38.82
67803;BME280;54601;51.378;-1.342;2022-09-14T08:06:34;99411.77;;;22.40;39.26
67803;BME280;54601;51.378;-1.342;2022-09-14T08:09:05;99411.63;;;22.38;39.29
67803;BME280;54601;51.378;-1.342;2022-09-14T08:11:28;99410.00;;;22.68;39.26
67803;BME280;54601;51.378;-1.342;2022-09-14T08:13:54;99409.47;;;22.63;39.34
67803;BME280;54601;51.378;-1.342;2022-09-14T08:16:19;99411.63;;;22.26;39.46
67803;BME280;54601;51.378;-1.342;2022-09-14T08:18:44;99414.33;;;22.13;39.42
67803;BME280;54601;51.378;-1.342;2022-09-14T08:21:11;99415.70;;;22.34;39.42
67803;BME280;54601;51.378;-1.342;2022-09-14T08:23:36;99414.16;;;22.30;39.48
67803;BME280;54601;51.378;-1.342;2022-09-14T08:26:02;99414.48;;;22.38;39.40
67803;BME280;54601;51.378;-1.342;2022-09-14T08:28:27;99415.72;;;22.36;39.75
67803;BME280;54601;51.378;-1.342;2022-09-14T08:30:53;99412.19;;;22.37;40.04
67803;BME280;54601;51.378;-1.342;2022-09-14T08:33:19;99413.90;;;22.28;40.11
67803;BME280;54601;51.378;-1.342;2022-09-14T08:35:45;99416.60;;;22.24;40.17
67803;BME280;54601;51.378;-1.342;2022-09-14T08:38:11;99419.64;;;22.52;40.30
67803;BME280;54601;51.378;-1.342;2022-09-14T08:40:42;99418.95;;;22.33;40.10
67803;BME280;54601;51.378;-1.342;2022-09-14T08:43:03;99417.70;;;22.31;40.07
67803;BME280;54601;51.378;-1.342;2022-09-14T08:45:29;99419.58;;;22.11;40.10
67803;BME280;54601;51.378;-1.342;2022-09-14T08:47:56;99421.31;;;22.41;40.07
67803;BME280;54601;51.378;-1.342;2022-09-14T08:50:21;99421.43;;;22.68;40.02
67803;BME280;54601;51.378;-1.342;2022-09-14T08:52:48;99426.39;;;22.42;39.91
67803;BME280;54601;51.378;-1.342;2022-09-14T08:55:19;99427.83;;;22.74;39.77
67803;BME280;54601;51.378;-1.342;2022-09-14T08:57:42;99425.25;;;22.67;39.41
67803;BME280;54601;51.378;-1.342;2022-09-14T09:00:07;99425.15;;;22.60;39.46
67803;BME280;54601;51.378;-1.342;2022-09-14T09:02:42;99428.23;;;22.59;39.47
67803;BME280;54601;51.378;-1.342;2022-09-14T09:04:59;99426.25;;;22.66;39.41
67803;BME280;54601;51.378;-1.342;2022-09-14T09:07:31;99424.69;;;22.60;39.64
67803;BME280;54601;51.378;-1.342;2022-09-14T09:09:49;99424.87;;;22.76;39.81
67803;BME280;54601;51.378;-1.342;2022-09-14T09:12:16;99420.54;;;22.53;39.92
67803;BME280;54601;51.378;-1.342;2022-09-14T09:14:42;99419.97;;;22.50;40.22
67803;BME280;54601;51.378;-1.342;2022-09-14T09:17:10;99425.13;;;22.31;40.23
67803;BME280;54601;51.378;-1.342;2022-09-14T09:19:37;99425.73;;;22.39;39.86
67803;BME280;54601;51.378;-1.342;2022-09-14T09:21:57;99426.46;;;22.55;39.92
67803;BME280;54601;51.378;-1.342;2022-09-14T09:24:30;99427.73;;;22.71;39.70
67803;BME280;54601;51.378;-1.342;2022-09-14T09:26:48;99424.38;;;22.43;39.75
67803;BME280;54601;51.378;-1.342;2022-09-14T09:29:14;99421.52;;;22.25;39.66
67803;BME280;54601;51.378;-1.342;2022-09-14T09:31:43;99420.37;;;22.64;39.91
67803;BME280;54601;51.378;-1.342;2022-09-14T09:34:06;99416.07;;;23.00;39.80
67803;BME280;54601;51.378;-1.342;2022-09-14T09:36:34;99415.47;;;22.53;39.96
67803;BME280;54601;51.378;-1.342;2022-09-14T09:38:57;99414.02;;;22.78;40.13
67803;BME280;54601;51.378;-1.342;2022-09-14T09:41:25;99414.06;;;22.62;40.04
67803;BME280;54601;51.378;-1.342;2022-09-14T09:43:56;99415.79;;;22.46;40.04
67803;BME280;54601;51.378;-1.342;2022-09-14T09:46:15;99419.05;;;22.73;40.17
67803;BME280;54601;51.378;-1.342;2022-09-14T09:48:42;99418.74;;;22.96;39.99
67803;BME280;54601;51.378;-1.342;2022-09-14T09:51:10;99417.21;;;22.79;40.00
67803;BME280;54601;51.378;-1.342;2022-09-14T09:53:35;99417.51;;;22.80;39.99
67803;BME280;54601;51.378;-1.342;2022-09-14T09:55:58;99413.80;;;22.80;40.21
67803;BME280;54601;51.378;-1.342;2022-09-14T09:58:30;99411.55;;;23.05;40.04
67803;BME280;54601;51.378;-1.342;2022-09-14T10:00:55;99406.74;;;22.84;40.04
67803;BME280;54601;51.378;-1.342;2022-09-14T10:03:26;99403.67;;;22.86;39.96
67803;BME280;54601;51.378;-1.342;2022-09-14T10:05:41;99406.52;;;22.89;39.93
67803;BME280;54601;51.378;-1.342;2022-09-14T10:08:13;99405.54;;;22.92;39.91
67803;BME280;54601;51.378;-1.342;2022-09-14T10:10:39;99407.25;;;22.93;39.78
67803;BME280;54601;51.378;-1.342;2022-09-14T10:12:59;99407.74;;;22.94;39.64
67803;BME280;54601;51.378;-1.342;2022-09-14T10:15:26;99408.05;;;22.98;39.55
67803;BME280;54601;51.378;-1.342;2022-09-14T10:18:03;99408.13;;;22.97;39.52
67803;BME280;54601;51.378;-1.342;2022-09-14T10:20:21;99408.45;;;23.19;39.65
67803;BME280;54601;51.378;-1.342;2022-09-14T10:22:42;99405.84;;;22.99;39.57
67803;BME280;54601;51.378;-1.342;2022-09-14T10:27:38;99408.12;;;23.00;39.44
67803;BME280;54601;51.378;-1.342;2022-09-14T10:30:02;99407.26;;;22.79;39.47
67803;BME280;54601;51.378;-1.342;2022-09-14T10:32:26;99407.95;;;22.96;39.53
67803;BME280;54601;51.378;-1.342;2022-09-14T10:34:51;99404.81;;;23.01;39.35
67803;BME280;54601;51.378;-1.342;2022-09-14T10:37:27;99409.25;;;22.97;39.40
67803;BME280;54601;51.378;-1.342;2022-09-14T10:39:46;99407.27;;;22.96;39.56
67803;BME280;54601;51.378;-1.342;2022-09-14T10:42:15;99410.53;;;22.98;39.79
67803;BME280;54601;51.378;-1.342;2022-09-14T10:44:44;99412.86;;;23.26;39.88
67803;BME280;54601;51.378;-1.342;2022-09-14T10:47:12;99414.25;;;23.11;39.55
67803;BME280;54601;51.378;-1.342;2022-09-14T10:49:34;99407.46;;;23.11;39.58
67803;BME280;54601;51.378;-1.342;2022-09-14T10:51:57;99403.42;;;23.12;39.81
67803;BME280;54601;51.378;-1.342;2022-09-14T10:54:35;99403.78;;;23.11;39.93
67803;BME280;54601;51.378;-1.342;2022-09-14T10:56:54;99403.95;;;22.90;39.61
67803;BME280;54601;51.378;-1.342;2022-09-14T10:59:19;99402.41;;;23.14;39.77
67803;BME280;54601;51.378;-1.342;2022-09-14T11:01:51;99398.72;;;23.14;39.65
67803;BME280;54601;51.378;-1.342;2022-09-14T11:04:15;99405.14;;;23.17;39.58
67803;BME280;54601;51.378;-1.342;2022-09-14T11:06:36;99404.51;;;23.20;39.61
67803;BME280;54601;51.378;-1.342;2022-09-14T11:08:56;99411.12;;;22.99;39.62
67803;BME280;54601;51.378;-1.342;2022-09-14T11:11:30;99413.61;;;23.22;39.56
67803;BME280;54601;51.378;-1.342;2022-09-14T11:13:54;99414.95;;;23.25;39.48
67803;BME280;54601;51.378;-1.342;2022-09-14T11:16:21;99414.55;;;23.21;39.35
67803;BME280;54601;51.378;-1.342;2022-09-14T11:18:43;99416.85;;;22.98;39.34
67803;BME280;54601;51.378;-1.342;2022-09-14T11:21:07;99421.94;;;23.28;39.40
67803;BME280;54601;51.378;-1.342;2022-09-14T11:23:37;99422.10;;;23.25;39.30
67803;BME280;54601;51.378;-1.342;2022-09-14T11:25:56;99425.10;;;23.23;39.33
67803;BME280;54601;51.378;-1.342;2022-09-14T11:28:22;99424.03;;;23.25;39.27
67803;BME280;54601;51.378;-1.342;2022-09-14T11:30:50;99428.16;;;23.22;39.29
67803;BME280;54601;51.378;-1.342;2022-09-14T11:33:17;99425.08;;;23.26;39.35
67803;BME280;54601;51.378;-1.342;2022-09-14T11:35:38;99426.38;;;23.27;39.21
67803;BME280;54601;51.378;-1.342;2022-09-14T11:38:06;99427.62;;;23.25;39.24
67803;BME280;54601;51.378;-1.342;2022-09-14T11:40:31;99429.33;;;23.26;39.13
67803;BME280;54601;51.378;-1.342;2022-09-14T11:42:57;99426.44;;;23.29;39.27
67803;BME280;54601;51.378;-1.342;2022-09-14T11:45:24;99428.28;;;23.30;39.27
67803;BME280;54601;51.378;-1.342;2022-09-14T11:47:52;99427.65;;;23.06;39.30
67803;BME280;54601;51.378;-1.342;2022-09-14T11:50:17;99427.76;;;23.33;39.33
67803;BME280;54601;51.378;-1.342;2022-09-14T11:52:36;99430.71;;;23.06;39.33
67803;BME280;54601;51.378;-1.342;2022-09-14T11:55:09;99433.09;;;23.08;39.01
67803;BME280;54601;51.378;-1.342;2022-09-14T11:57:30;99431.71;;;23.32;39.01
67803;BME280;54601;51.378;-1.342;2022-09-14T11:59:56;99434.79;;;23.32;39.13
67803;BME280;54601;51.378;-1.342;2022-09-14T12:09:42;99434.07;;;23.37;39.14
67803;BME280;54601;51.378;-1.342;2022-09-14T12:12:03;99432.34;;;23.11;39.20
67803;BME280;54601;51.378;-1.342;2022-09-14T12:14:34;99435.68;;;23.30;39.07
67803;BME280;54601;51.378;-1.342;2022-09-14T12:17:03;99430.96;;;23.35;39.14
67803;BME280;54601;51.378;-1.342;2022-09-14T12:19:21;99431.65;;;23.42;38.99
67803;BME280;54601;51.378;-1.342;2022-09-14T12:21:46;99432.59;;;23.49;38.86
67803;BME280;54601;51.378;-1.342;2022-09-14T12:24:13;99431.28;;;23.30;38.74
67803;BME280;54601;51.378;-1.342;2022-09-14T12:26:38;99433.80;;;23.28;38.93
67803;BME280;54601;51.378;-1.342;2022-09-14T12:31:34;99438.35;;;23.34;38.85
67803;BME280;54601;51.378;-1.342;2022-09-14T12:34:04;99439.28;;;23.35;38.81
67803;BME280;54601;51.378;-1.342;2022-09-14T12:43:50;99445.16;;;23.38;39.07
67803;BME280;54601;51.378;-1.342;2022-09-14T12:46:07;99443.25;;;23.13;39.13
67803;BME280;54601;51.378;-1.342;2022-09-14T12:50:56;99431.85;;;23.31;39.17
67803;BME280;54601;51.378;-1.342;2022-09-14T12:53:27;99432.48;;;23.18;38.94
67803;BME280;54601;51.378;-1.342;2022-09-14T12:55:55;99432.38;;;23.38;39.02
67803;BME280;54601;51.378;-1.342;2022-09-14T12:58:26;99434.85;;;23.43;38.90
67803;BME280;54601;51.378;-1.342;2022-09-14T13:00:46;99435.89;;;23.45;38.76
67803;BME280;54601;51.378;-1.342;2022-09-14T13:03:15;99433.26;;;23.57;39.01
67803;BME280;54601;51.378;-1.342;2022-09-14T13:05:32;99433.54;;;23.35;39.04
67803;BME280;54601;51.378;-1.342;2022-09-14T13:07:56;99433.61;;;23.29;39.11
67803;BME280;54601;51.378;-1.342;2022-09-14T13:10:25;99434.33;;;23.34;39.07